Allendorf, Iowa
Current Conditions -  °F | °C
As of 6:15 AM on Sunday 23 Nov 2014 (Local Time) from KSHL Reporting Station
Haze Haze  
Wind Chill: 10°   Ceiling: 300
Heat Index: 10°   Visibility: 2.5mi
Dew Point: 10°   Wind: 6mph
Humidity: 100%   Direction: 200°SSW
Pressure: 29.43"   Gusts: 13mph
Location:  43.41°N, 95.64°W
Report Text: KSHL 231215Z AUTO 20005G11KT 2 1/2SM BR OVC003 10/10 A2943 RMK AO2
Loading
Personal Weather Stations






























Interactive Weather Map New forecast layout! Learn more

10-Day Weather Forecast

Advertisements
Track Severe Weather on mobile